createdAt,value
2022-10-09T00:00:28.307Z,9.45
2022-10-09T00:02:37.735Z,9.38
2022-10-09T00:04:44.819Z,11.95
2022-10-09T00:06:51.693Z,8.40
2022-10-09T00:08:58.771Z,8.25
2022-10-09T00:11:09.391Z,7.88
2022-10-09T00:13:16.771Z,6.40
2022-10-09T00:15:23.596Z,9.75
2022-10-09T00:17:30.776Z,7.47
2022-10-09T00:19:39.288Z,7.95
2022-10-09T00:21:46.164Z,6.32
2022-10-09T00:23:54.266Z,7.68
2022-10-09T00:26:02.934Z,9.88
2022-10-09T00:28:10.102Z,6.68
2022-10-09T00:30:17.296Z,6.50
2022-10-09T00:32:24.426Z,8.35
2022-10-09T00:34:31.305Z,6.10
2022-10-09T00:36:40.120Z,5.38
2022-10-09T00:38:47.306Z,6.40
2022-10-09T00:40:55.149Z,5.47
2022-10-09T00:43:02.544Z,4.97
2022-10-09T00:45:10.897Z,5.53
2022-10-09T00:47:24.017Z,5.57
2022-10-09T00:49:33.813Z,5.05
2022-10-09T00:51:43.556Z,4.80
2022-10-09T00:53:50.589Z,6.05
2022-10-09T00:55:57.863Z,5.38
2022-10-09T00:58:05.455Z,8.05
2022-10-09T01:00:15.094Z,5.30
2022-10-09T01:02:22.378Z,4.72
2022-10-09T01:04:29.387Z,5.72
2022-10-09T01:06:52.715Z,5.05
2022-10-09T01:09:08.293Z,4.10
2022-10-09T01:11:22.744Z,7.13
2022-10-09T01:13:35.969Z,6.35
2022-10-09T01:15:49.706Z,4.97
2022-10-09T01:18:03.388Z,5.93
2022-10-09T01:20:35.709Z,6.68
2022-10-09T01:22:57.380Z,4.82
2022-10-09T01:25:08.815Z,4.80
2022-10-09T01:27:21.112Z,6.90
2022-10-09T01:29:31.572Z,6.25
2022-10-09T01:31:43.411Z,6.05
2022-10-09T01:33:50.953Z,4.95
2022-10-09T01:35:58.492Z,5.25
2022-10-09T01:38:06.444Z,4.47
2022-10-09T01:40:15.981Z,5.70
2022-10-09T01:42:26.437Z,5.30
2022-10-09T01:44:35.769Z,5.32
2022-10-09T01:46:43.258Z,4.20
2022-10-09T01:48:53.767Z,4.03
2022-10-09T01:51:04.899Z,3.50
2022-10-09T01:53:14.939Z,4.22
2022-10-09T01:55:36.767Z,5.43
2022-10-09T01:57:52.760Z,3.80
2022-10-09T02:00:02.650Z,3.35
2022-10-09T02:02:18.857Z,3.78
2022-10-09T02:04:26.998Z,4.53
2022-10-09T02:06:35.201Z,5.38
2022-10-09T02:08:44.329Z,5.70
2022-10-09T02:10:53.866Z,3.65
2022-10-09T02:13:03.913Z,5.75
2022-10-09T02:15:12.640Z,4.35
2022-10-09T02:17:24.832Z,2.90
2022-10-09T02:19:38.620Z,4.00
2022-10-09T02:21:53.691Z,3.63
2022-10-09T02:24:02.565Z,4.72
2022-10-09T02:26:10.609Z,4.07
2022-10-09T02:28:19.833Z,5.53
2022-10-09T02:30:30.090Z,4.57
2022-10-09T02:32:37.332Z,3.22
2022-10-09T02:34:44.420Z,3.42
2022-10-09T02:36:51.951Z,3.10
2022-10-09T02:38:59.329Z,4.25
2022-10-09T02:41:06.664Z,3.25
2022-10-09T02:43:13.751Z,2.15
2022-10-09T02:45:22.564Z,4.15
2022-10-09T02:47:29.542Z,3.92
2022-10-09T02:49:36.621Z,2.80
2022-10-09T02:51:43.905Z,3.85
2022-10-09T02:53:50.625Z,4.30
2022-10-09T02:55:57.550Z,2.38
2022-10-09T02:58:04.380Z,2.15
2022-10-09T03:00:12.476Z,2.30
2022-10-09T03:02:21.171Z,3.10
2022-10-09T03:04:28.188Z,2.70
2022-10-09T03:06:35.508Z,1.88
2022-10-09T03:08:43.926Z,4.05
2022-10-09T03:10:51.311Z,3.47
2022-10-09T03:12:58.128Z,4.43
2022-10-09T03:15:05.214Z,3.20
2022-10-09T03:17:12.337Z,3.63
2022-10-09T03:19:21.310Z,2.80
2022-10-09T03:21:30.182Z,3.67
2022-10-09T03:23:37.217Z,2.65
2022-10-09T03:25:44.135Z,3.47
2022-10-09T03:27:51.060Z,2.47
2022-10-09T03:29:57.885Z,4.28
2022-10-09T03:32:05.266Z,2.53
2022-10-09T03:34:13.117Z,3.30
2022-10-09T03:36:21.939Z,3.22
2022-10-09T03:38:28.812Z,3.85
2022-10-09T03:40:35.891Z,3.08
2022-10-09T03:42:42.715Z,2.33
2022-10-09T03:44:50.054Z,6.18
2022-10-09T03:46:56.811Z,8.73
2022-10-09T03:49:03.860Z,10.25
2022-10-09T03:51:10.828Z,5.20
2022-10-09T03:53:20.107Z,2.90
2022-10-09T03:55:27.034Z,2.60
2022-10-09T03:57:34.369Z,2.38
2022-10-09T03:59:41.294Z,1.95
2022-10-09T04:01:48.689Z,3.03
2022-10-09T04:03:55.709Z,2.33
2022-10-09T04:06:02.992Z,4.72
2022-10-09T04:08:10.532Z,2.40
2022-10-09T04:10:19.670Z,2.00
2022-10-09T04:12:26.432Z,2.15
2022-10-09T04:14:33.503Z,3.97
2022-10-09T04:16:40.493Z,2.67
2022-10-09T04:18:48.898Z,2.63
2022-10-09T04:20:56.543Z,1.50
2022-10-09T04:23:03.364Z,1.73
2022-10-09T04:25:11.010Z,2.42
2022-10-09T04:27:20.030Z,2.67
2022-10-09T04:29:27.110Z,1.92
2022-10-09T04:31:34.115Z,2.25
2022-10-09T04:33:41.526Z,3.33
2022-10-09T04:35:49.434Z,2.58
2022-10-09T04:37:56.604Z,2.10
2022-10-09T04:40:03.427Z,4.25
2022-10-09T04:42:10.714Z,2.45
2022-10-09T04:44:19.584Z,4.45
2022-10-09T04:46:27.071Z,3.38
2022-10-09T04:48:34.049Z,3.20
2022-10-09T04:50:43.175Z,1.75
2022-10-09T04:52:50.755Z,3.38
2022-10-09T04:54:57.948Z,1.85
2022-10-09T04:57:04.978Z,1.63
2022-10-09T04:59:11.955Z,1.83
2022-10-09T05:01:23.288Z,2.30
2022-10-09T05:03:30.822Z,4.20
2022-10-09T05:05:37.653Z,1.80
2022-10-09T05:07:45.082Z,2.88
2022-10-09T05:09:51.957Z,4.00
2022-10-09T05:11:59.241Z,2.83
2022-10-09T05:14:06.065Z,5.47
2022-10-09T05:16:14.718Z,2.67
2022-10-09T05:18:23.613Z,5.65
2022-10-09T05:20:30.629Z,3.10
2022-10-09T05:22:37.657Z,3.05
2022-10-09T05:24:44.789Z,2.58
2022-10-09T05:26:52.192Z,3.80
2022-10-09T05:28:59.103Z,3.42
2022-10-09T05:31:07.511Z,4.78
2022-10-09T05:33:14.396Z,4.43
2022-10-09T05:35:23.053Z,3.72
2022-10-09T05:37:30.196Z,3.85
2022-10-09T05:39:37.569Z,4.07
2022-10-09T05:41:44.340Z,5.35
2022-10-09T05:43:52.754Z,5.60
2022-10-09T05:46:07.425Z,3.30
2022-10-09T05:48:14.591Z,2.55
2022-10-09T05:50:23.923Z,3.30
2022-10-09T05:52:31.207Z,2.65
2022-10-09T05:54:38.184Z,3.78
2022-10-09T05:56:45.885Z,3.10
2022-10-09T05:58:54.907Z,5.18
2022-10-09T06:01:04.594Z,4.72
2022-10-09T06:03:11.670Z,4.75
2022-10-09T06:05:19.210Z,8.48
2022-10-09T06:07:28.140Z,9.98
2022-10-09T06:09:35.110Z,7.97
2022-10-09T06:11:43.317Z,20.08
2022-10-09T06:13:50.652Z,15.23
2022-10-09T06:15:58.088Z,10.40
2022-10-09T06:18:04.972Z,6.20
2022-10-09T06:20:12.400Z,4.65
2022-10-09T06:22:19.428Z,3.38
2022-10-09T06:24:29.500Z,3.67
2022-10-09T06:26:37.119Z,3.15
2022-10-09T06:28:44.546Z,2.83
2022-10-09T06:30:51.547Z,5.78
2022-10-09T06:32:58.254Z,6.50
2022-10-09T06:35:05.034Z,7.55
2022-10-09T06:37:11.850Z,9.85
2022-10-09T06:39:18.928Z,9.73
2022-10-09T06:41:29.192Z,4.85
2022-10-09T06:43:36.568Z,3.20
2022-10-09T06:45:43.748Z,3.58
2022-10-09T06:47:50.993Z,3.70
2022-10-09T06:49:58.319Z,3.53
2022-10-09T06:52:05.206Z,4.53
2022-10-09T06:54:16.219Z,4.38
2022-10-09T06:56:26.681Z,5.40
2022-10-09T06:58:34.674Z,5.20
2022-10-09T07:00:41.548Z,2.78
2022-10-09T07:02:49.087Z,3.65
2022-10-09T07:07:18.772Z,3.90
2022-10-09T07:09:25.686Z,6.20
2022-10-09T07:11:36.623Z,11.07
2022-10-09T07:13:43.531Z,8.30
2022-10-09T07:15:50.897Z,7.90
2022-10-09T07:17:57.689Z,6.47
2022-10-09T07:20:04.973Z,4.53
2022-10-09T07:22:12.565Z,3.15
2022-10-09T07:24:21.553Z,4.85
2022-10-09T07:26:30.462Z,3.53
2022-10-09T07:28:39.369Z,3.25
2022-10-09T07:30:46.546Z,4.57
2022-10-09T07:32:55.749Z,4.32
2022-10-09T07:35:03.179Z,5.53
2022-10-09T07:37:10.105Z,4.75
2022-10-09T07:39:17.493Z,5.15
2022-10-09T07:41:25.903Z,4.90
2022-10-09T07:43:33.035Z,5.07
2022-10-09T07:45:41.700Z,5.15
2022-10-09T07:47:48.687Z,4.18
2022-10-09T07:49:55.608Z,3.92
2022-10-09T07:52:02.836Z,4.72
2022-10-09T07:54:09.659Z,4.78
2022-10-09T07:56:21.037Z,4.78
2022-10-09T07:58:28.226Z,5.80
2022-10-09T08:00:36.386Z,4.28
2022-10-09T08:02:44.939Z,4.72
2022-10-09T08:04:52.222Z,5.68
2022-10-09T08:06:59.455Z,5.30
2022-10-09T08:09:08.384Z,4.43
2022-10-09T08:11:16.237Z,6.35
2022-10-09T08:13:23.559Z,4.32
2022-10-09T08:15:30.523Z,3.08
2022-10-09T08:17:37.359Z,3.55
2022-10-09T08:19:46.130Z,3.85
2022-10-09T08:21:53.054Z,3.83
2022-10-09T08:24:00.952Z,3.47
2022-10-09T08:26:08.184Z,6.22
2022-10-09T08:28:15.205Z,3.47
2022-10-09T08:30:22.399Z,5.78
2022-10-09T08:32:29.985Z,4.13
2022-10-09T08:34:36.859Z,4.32
2022-10-09T08:36:46.857Z,4.55
2022-10-09T08:38:53.897Z,5.10
2022-10-09T08:41:06.341Z,5.18
2022-10-09T08:43:18.591Z,4.78
2022-10-09T08:45:25.519Z,4.35
2022-10-09T08:47:40.487Z,4.75
2022-10-09T08:49:51.707Z,7.93
2022-10-09T08:52:06.056Z,5.68
2022-10-09T08:54:18.771Z,6.07
2022-10-09T08:56:26.973Z,4.40
2022-10-09T08:58:36.883Z,5.47
2022-10-09T09:00:47.840Z,6.70
2022-10-09T09:03:29.530Z,5.40
2022-10-09T09:05:45.882Z,5.40
2022-10-09T09:08:06.011Z,5.50
2022-10-09T09:10:22.350Z,6.60
2022-10-09T09:12:37.475Z,6.32
2022-10-09T09:14:58.744Z,4.45
2022-10-09T09:17:14.623Z,4.78
2022-10-09T09:19:40.493Z,6.40
2022-10-09T09:21:52.591Z,5.88
2022-10-09T09:26:16.681Z,5.57
2022-10-09T09:28:29.622Z,5.20
2022-10-09T09:30:40.670Z,6.60
2022-10-09T09:32:55.120Z,11.52
2022-10-09T09:35:16.331Z,5.78
2022-10-09T09:42:05.833Z,6.57
2022-10-09T09:44:14.909Z,5.95
2022-10-09T09:46:26.251Z,6.47
2022-10-09T09:48:38.495Z,5.38
2022-10-09T09:50:53.145Z,4.35
2022-10-09T09:53:22.445Z,5.07
2022-10-09T09:55:32.913Z,6.13
2022-10-09T09:57:45.564Z,4.85
2022-10-09T09:59:52.490Z,4.65
2022-10-09T10:02:05.735Z,4.65
2022-10-09T10:04:29.124Z,4.97
2022-10-09T10:06:37.639Z,6.15
2022-10-09T10:08:45.064Z,5.28
2022-10-09T10:10:55.159Z,6.57
2022-10-09T10:13:03.229Z,7.57
2022-10-09T10:15:18.966Z,5.15
2022-10-09T10:17:31.727Z,4.85
2022-10-09T10:19:39.878Z,6.18
2022-10-09T10:21:51.972Z,6.43
2022-10-09T10:26:23.648Z,5.32
2022-10-09T10:28:37.209Z,5.25
2022-10-09T10:30:44.967Z,5.80
2022-10-09T10:32:57.942Z,7.43
2022-10-09T10:35:08.343Z,8.43
2022-10-09T10:37:31.241Z,7.88
2022-10-09T10:39:44.517Z,8.65
2022-10-09T10:41:56.921Z,5.70
2022-10-09T10:44:10.093Z,6.13
2022-10-09T10:46:25.660Z,7.13
2022-10-09T10:48:34.954Z,8.43
2022-10-09T10:50:50.021Z,6.97
2022-10-09T10:53:09.488Z,5.07
2022-10-09T10:55:32.492Z,5.93
2022-10-09T10:57:52.985Z,5.32
2022-10-09T11:00:07.290Z,4.53
2022-10-09T11:02:51.945Z,6.20
2022-10-09T11:05:09.425Z,5.68
2022-10-09T11:07:28.377Z,6.78
2022-10-09T11:09:45.648Z,6.35
2022-10-09T11:11:55.896Z,8.02
2022-10-09T11:14:16.613Z,5.05
2022-10-09T11:16:46.896Z,6.22
2022-10-09T11:19:08.129Z,8.35
2022-10-09T11:21:30.313Z,5.72
2022-10-09T11:26:04.082Z,5.85
2022-10-09T11:28:17.383Z,7.60
2022-10-09T11:30:27.712Z,6.63
2022-10-09T11:32:38.527Z,5.88
2022-10-09T11:34:49.806Z,7.25
2022-10-09T11:36:57.698Z,5.80
2022-10-09T11:39:06.985Z,7.13
2022-10-09T11:41:14.780Z,11.07
2022-10-09T11:43:46.845Z,8.85
2022-10-09T11:46:03.357Z,11.98
2022-10-09T11:50:52.101Z,4.97
2022-10-09T11:53:06.159Z,3.42
2022-10-09T11:55:26.294Z,3.92
2022-10-09T11:57:39.415Z,3.13
2022-10-09T11:59:48.238Z,2.58
2022-10-09T12:01:57.296Z,2.70
2022-10-09T12:04:07.369Z,4.13
2022-10-09T12:06:28.007Z,6.03
2022-10-09T12:08:45.285Z,2.97
2022-10-09T12:11:11.246Z,4.78
2022-10-09T12:13:44.344Z,3.25
2022-10-09T12:16:05.145Z,3.72
2022-10-09T12:18:33.415Z,3.42
2022-10-09T12:20:45.128Z,4.80
2022-10-09T12:28:01.327Z,3.75
2022-10-09T12:30:23.416Z,4.43
2022-10-09T12:32:35.818Z,3.17
2022-10-09T12:34:51.237Z,2.55
2022-10-09T12:39:39.596Z,4.05
2022-10-09T12:41:51.645Z,6.07
2022-10-09T12:44:02.664Z,4.03
2022-10-09T12:46:12.039Z,5.53
2022-10-09T12:48:37.104Z,3.85
2022-10-09T12:50:47.402Z,5.70
2022-10-09T12:53:00.524Z,6.75
2022-10-09T12:55:29.416Z,5.07
2022-10-09T12:57:51.597Z,2.83
2022-10-09T13:00:00.634Z,7.68
2022-10-09T13:02:10.502Z,4.90
2022-10-09T13:04:32.958Z,3.92
2022-10-09T13:06:50.329Z,5.97
2022-10-09T13:09:27.665Z,2.55
2022-10-09T13:11:42.733Z,3.83
2022-10-09T13:13:55.290Z,5.35
2022-10-09T13:16:04.724Z,6.20
2022-10-09T13:18:25.424Z,5.70
2022-10-09T13:20:41.624Z,4.65
2022-10-09T13:25:20.811Z,5.72
2022-10-09T13:27:32.601Z,5.93
2022-10-09T13:29:40.250Z,4.72
2022-10-09T13:31:52.036Z,4.78
2022-10-09T13:34:10.690Z,5.25
2022-10-09T13:41:09.713Z,7.72
2022-10-09T13:43:29.849Z,4.55
2022-10-09T13:45:43.101Z,5.03
2022-10-09T13:47:50.241Z,7.65
2022-10-09T13:50:04.406Z,6.65
2022-10-09T13:52:11.730Z,6.68
2022-10-09T13:54:23.161Z,5.60
2022-10-09T13:56:31.519Z,5.18
2022-10-09T13:58:43.614Z,4.97
2022-10-09T14:00:52.950Z,7.15
2022-10-09T14:03:02.697Z,4.65
2022-10-09T14:05:11.207Z,5.50
2022-10-09T14:07:20.790Z,3.78
2022-10-09T14:09:32.188Z,7.97
2022-10-09T14:11:42.782Z,6.82
2022-10-09T14:13:51.050Z,3.67
2022-10-09T14:15:59.244Z,5.40
2022-10-09T14:18:08.987Z,7.57
2022-10-09T14:22:38.254Z,11.65
2022-10-09T14:24:57.417Z,13.20
2022-10-09T14:27:05.154Z,14.88
2022-10-09T14:29:14.077Z,10.73
2022-10-09T14:31:21.156Z,10.90
2022-10-09T14:33:28.849Z,6.75
2022-10-09T14:35:36.031Z,5.35
2022-10-09T14:37:42.856Z,5.22
2022-10-09T14:39:51.829Z,6.63
2022-10-09T14:41:58.651Z,6.55
2022-10-09T14:44:06.244Z,6.20
2022-10-09T14:46:15.534Z,6.65
2022-10-09T14:48:22.757Z,5.10
2022-10-09T14:50:29.684Z,4.55
2022-10-09T14:52:36.915Z,8.82
2022-10-09T14:54:43.698Z,6.18
2022-10-09T14:56:52.508Z,6.35
2022-10-09T14:59:01.433Z,5.82
2022-10-09T15:01:08.815Z,7.35
2022-10-09T15:03:16.049Z,6.20
2022-10-09T15:05:23.282Z,5.50
2022-10-09T15:07:30.053Z,6.63
2022-10-09T15:09:37.185Z,5.70
2022-10-09T15:11:44.113Z,5.03
2022-10-09T15:13:54.213Z,5.00
2022-10-09T15:16:11.938Z,5.90
2022-10-09T15:18:18.916Z,7.05
2022-10-09T15:20:26.253Z,5.65
2022-10-09T15:22:33.435Z,5.75
2022-10-09T15:24:40.309Z,5.78
2022-10-09T15:26:47.597Z,4.72
2022-10-09T15:28:56.823Z,7.97
2022-10-09T15:31:06.414Z,5.80
2022-10-09T15:33:13.385Z,6.07
2022-10-09T15:35:20.832Z,8.07
2022-10-09T15:37:27.851Z,6.68
2022-10-09T15:39:37.757Z,6.60
2022-10-09T15:41:46.728Z,5.38
2022-10-09T15:43:57.075Z,6.10
2022-10-09T15:46:06.305Z,5.95
2022-10-09T15:48:18.158Z,4.85
2022-10-09T15:50:25.129Z,7.80
2022-10-09T15:52:32.510Z,5.40
2022-10-09T15:54:39.281Z,5.45
2022-10-09T15:56:46.416Z,4.95
2022-10-09T15:58:53.860Z,4.90
2022-10-09T16:01:07.483Z,5.07
2022-10-09T16:03:14.663Z,4.30
2022-10-09T16:05:21.847Z,4.65
2022-10-09T16:07:29.283Z,4.68
2022-10-09T16:09:36.824Z,7.00
2022-10-09T16:11:43.902Z,7.80
2022-10-09T16:13:50.983Z,9.15
2022-10-09T16:15:57.965Z,6.30
2022-10-09T16:18:07.035Z,4.88
2022-10-09T16:20:14.325Z,7.28
2022-10-09T16:22:21.757Z,5.50
2022-10-09T16:24:28.630Z,4.78
2022-10-09T16:26:35.811Z,8.55
2022-10-09T16:28:42.749Z,6.35
2022-10-09T16:30:50.023Z,6.10
2022-10-09T16:32:57.007Z,6.15
2022-10-09T16:35:06.179Z,5.90
2022-10-09T16:37:13.118Z,7.85
2022-10-09T16:39:20.081Z,5.95
2022-10-09T16:41:27.619Z,7.57
2022-10-09T16:43:37.262Z,7.43
2022-10-09T16:45:45.055Z,5.25
2022-10-09T16:47:52.494Z,6.25
2022-10-09T16:49:59.724Z,8.77
2022-10-09T16:52:08.289Z,7.93
2022-10-09T16:54:15.419Z,5.63
2022-10-09T16:56:24.080Z,9.52
2022-10-09T16:58:30.961Z,7.70
2022-10-09T17:00:37.918Z,5.30
2022-10-09T17:02:45.069Z,4.63
2022-10-09T17:04:52.199Z,5.60
2022-10-09T17:06:59.124Z,5.50
2022-10-09T17:09:13.754Z,7.03
2022-10-09T17:11:21.583Z,4.57
2022-10-09T17:13:28.504Z,4.63
2022-10-09T17:15:35.540Z,4.85
2022-10-09T17:17:42.514Z,6.07
2022-10-09T17:21:56.154Z,5.28
2022-10-09T17:24:04.471Z,4.18
2022-10-09T17:26:14.635Z,4.22
2022-10-09T17:28:21.933Z,7.13
2022-10-09T17:30:28.875Z,6.07
2022-10-09T17:32:35.748Z,5.28
2022-10-09T17:34:46.823Z,4.80
2022-10-09T17:36:53.849Z,6.30
2022-10-09T17:39:01.134Z,4.97
2022-10-09T17:41:08.622Z,4.05
2022-10-09T17:43:17.497Z,8.68
2022-10-09T17:45:24.930Z,4.75
2022-10-09T17:47:31.910Z,5.60
2022-10-09T17:49:39.500Z,4.35
2022-10-09T17:51:46.629Z,5.50
2022-10-09T17:53:54.063Z,4.93
2022-10-09T17:56:05.297Z,5.55
2022-10-09T17:58:12.218Z,4.53
2022-10-09T18:00:22.067Z,6.05
2022-10-09T18:02:29.246Z,6.25
2022-10-09T18:04:36.481Z,6.57
2022-10-09T18:06:43.505Z,6.70
2022-10-09T18:08:50.592Z,4.32
2022-10-09T18:11:02.887Z,7.25
2022-10-09T18:13:11.758Z,5.50
2022-10-09T18:15:20.782Z,7.00
2022-10-09T18:17:29.706Z,6.05
2022-10-09T18:19:36.578Z,7.32
2022-10-09T18:21:45.808Z,5.85
2022-10-09T18:23:52.841Z,7.97
2022-10-09T18:26:00.326Z,5.43
2022-10-09T18:28:07.341Z,10.65
2022-10-09T18:30:15.772Z,5.72
2022-10-09T18:32:24.285Z,8.23
2022-10-09T18:34:33.717Z,5.95
2022-10-09T18:36:43.769Z,4.75
2022-10-09T18:38:53.196Z,4.85
2022-10-09T18:41:00.478Z,5.45
2022-10-09T18:43:07.664Z,6.50
2022-10-09T18:45:17.464Z,6.15
2022-10-09T18:47:29.498Z,7.68
2022-10-09T18:49:37.089Z,5.63
2022-10-09T18:51:46.116Z,7.00
2022-10-09T18:53:56.584Z,6.68
2022-10-09T18:56:03.611Z,7.68
2022-10-09T18:58:10.936Z,6.30
2022-10-09T19:00:18.887Z,7.00
2022-10-09T19:02:28.214Z,6.10
2022-10-09T19:04:35.502Z,5.10
2022-10-09T19:06:42.786Z,5.32
2022-10-09T19:08:49.869Z,5.57
2022-10-09T19:10:57.149Z,5.50
2022-10-09T19:13:03.975Z,4.63
2022-10-09T19:15:12.414Z,5.20
2022-10-09T19:17:19.462Z,4.28
2022-10-09T19:19:28.034Z,6.35
2022-10-09T19:21:35.160Z,5.22
2022-10-09T19:23:42.244Z,6.43
2022-10-09T19:25:52.591Z,8.23
2022-10-09T19:27:59.569Z,6.82
2022-10-09T19:30:07.212Z,5.75
2022-10-09T19:32:14.445Z,5.70
2022-10-09T19:34:21.994Z,6.53
2022-10-09T19:36:34.185Z,6.05
2022-10-09T19:40:48.393Z,4.43
2022-10-09T19:42:55.215Z,4.70
2022-10-09T19:45:02.255Z,4.78
2022-10-09T19:47:09.221Z,5.20
2022-10-09T19:49:16.153Z,4.32
2022-10-09T19:51:25.223Z,3.88
2022-10-09T19:53:33.839Z,4.85
2022-10-09T19:55:41.176Z,6.32
2022-10-09T19:57:48.521Z,5.45
2022-10-09T19:59:55.696Z,6.07
2022-10-09T20:02:02.564Z,3.90
2022-10-09T20:04:11.896Z,4.32
2022-10-09T20:06:19.134Z,7.03
2022-10-09T20:08:26.312Z,4.90
2022-10-09T20:10:35.087Z,6.13
2022-10-09T20:12:42.363Z,4.28
2022-10-09T20:14:49.597Z,6.78
2022-10-09T20:16:56.420Z,6.63
2022-10-09T20:19:04.121Z,4.78
2022-10-09T20:21:11.296Z,4.68
2022-10-09T20:23:18.579Z,5.72
2022-10-09T20:25:25.511Z,5.10
2022-10-09T20:27:34.785Z,5.72
2022-10-09T20:29:41.966Z,7.18
2022-10-09T20:31:49.818Z,5.57
2022-10-09T20:33:58.430Z,6.18
2022-10-09T20:36:08.385Z,5.55
2022-10-09T20:38:15.405Z,6.13
2022-10-09T20:40:22.646Z,5.15
2022-10-09T20:42:30.030Z,4.80
2022-10-09T20:44:38.895Z,4.88
2022-10-09T20:46:46.281Z,4.35
2022-10-09T20:48:53.627Z,8.68
2022-10-09T20:51:03.408Z,4.28
2022-10-09T20:53:11.924Z,6.55
2022-10-09T20:55:19.366Z,3.75
2022-10-09T20:57:26.496Z,4.88
2022-10-09T20:59:33.979Z,5.22
2022-10-09T21:01:42.827Z,8.52
2022-10-09T21:03:50.133Z,10.30
2022-10-09T21:05:57.527Z,11.43
2022-10-09T21:08:04.548Z,6.10
2022-10-09T21:10:12.345Z,6.72
2022-10-09T21:12:19.270Z,3.38
2022-10-09T21:14:26.502Z,5.95
2022-10-09T21:16:33.532Z,6.20
2022-10-09T21:18:43.221Z,7.00
2022-10-09T21:20:51.434Z,8.27
2022-10-09T21:22:58.146Z,5.95
2022-10-09T21:25:05.435Z,6.63
2022-10-09T21:27:12.511Z,4.88
2022-10-09T21:29:20.006Z,7.53
2022-10-09T21:31:29.449Z,7.68
2022-10-09T21:33:36.394Z,7.82
2022-10-09T21:35:46.101Z,5.15
2022-10-09T21:37:53.692Z,8.05
2022-10-09T21:40:00.618Z,8.73
2022-10-09T21:42:08.363Z,5.93
2022-10-09T21:44:15.647Z,9.38
2022-10-09T21:46:22.727Z,9.88
2022-10-09T21:48:30.062Z,5.80
2022-10-09T21:50:37.347Z,6.63
2022-10-09T21:52:45.961Z,7.50
2022-10-09T21:54:52.794Z,6.57
2022-10-09T21:56:59.658Z,7.68
2022-10-09T21:59:06.993Z,7.28
2022-10-09T22:01:14.361Z,5.32
2022-10-09T22:03:21.307Z,6.78
2022-10-09T22:05:28.699Z,10.50
2022-10-09T22:07:35.670Z,6.78
2022-10-09T22:09:44.744Z,9.05
2022-10-09T22:11:51.569Z,9.88
2022-10-09T22:13:59.621Z,8.15
2022-10-09T22:16:09.720Z,7.53
2022-10-09T22:18:16.654Z,9.57
2022-10-09T22:20:23.469Z,7.65
2022-10-09T22:22:30.754Z,9.77
2022-10-09T22:24:37.576Z,13.02
2022-10-09T22:26:46.147Z,9.27
2022-10-09T22:28:53.526Z,12.00
2022-10-09T22:31:08.799Z,8.35
2022-10-09T22:33:15.877Z,9.75
2022-10-09T22:35:23.417Z,10.68
2022-10-09T22:37:30.454Z,12.82
2022-10-09T22:39:37.224Z,8.75
2022-10-09T22:41:45.985Z,10.93
2022-10-09T22:43:55.573Z,9.07
2022-10-09T22:46:02.350Z,10.18
2022-10-09T22:48:09.742Z,7.90
2022-10-09T22:50:16.710Z,9.25
2022-10-09T22:52:24.199Z,7.93
2022-10-09T22:54:31.328Z,12.05
2022-10-09T22:56:41.121Z,7.75
2022-10-09T22:58:50.608Z,7.45
2022-10-09T23:00:57.737Z,6.05
2022-10-09T23:03:04.663Z,5.30
2022-10-09T23:05:12.102Z,8.32
2022-10-09T23:07:19.077Z,4.15
2022-10-09T23:09:27.590Z,4.40
2022-10-09T23:11:34.825Z,4.28
2022-10-09T23:13:42.162Z,2.67
2022-10-09T23:15:50.671Z,4.93
2022-10-09T23:17:57.647Z,4.78
2022-10-09T23:20:04.730Z,3.70
2022-10-09T23:22:14.010Z,4.15
2022-10-09T23:24:21.038Z,5.32
2022-10-09T23:26:29.906Z,5.38
2022-10-09T23:28:37.198Z,6.32
2022-10-09T23:30:44.221Z,6.82
2022-10-09T23:32:55.959Z,4.15
2022-10-09T23:37:09.041Z,7.88
2022-10-09T23:39:16.581Z,5.85
2022-10-09T23:41:25.299Z,4.88
2022-10-09T23:43:33.146Z,5.78
2022-10-09T23:45:44.219Z,3.70
2022-10-09T23:47:52.885Z,4.35
2022-10-09T23:49:59.810Z,5.28
2022-10-09T23:52:06.695Z,5.97
2022-10-09T23:54:13.765Z,4.10
2022-10-09T23:56:22.335Z,3.28
2022-10-09T23:58:29.611Z,5.15
